createdAt,value
2019-03-22T00:02:40.172Z,54.53
2019-03-22T00:05:45.129Z,54.73
2019-03-22T00:08:50.125Z,51.63
2019-03-22T00:11:54.976Z,40.87
2019-03-22T00:14:59.776Z,50.10
2019-03-22T00:18:04.705Z,41.50
2019-03-22T00:21:09.514Z,44.53
2019-03-22T00:24:14.447Z,40.20
2019-03-22T00:27:19.397Z,45.67
2019-03-22T00:30:24.318Z,36.80
2019-03-22T00:33:29.234Z,46.53
2019-03-22T00:36:34.064Z,37.43
2019-03-22T00:39:38.883Z,45.73
2019-03-22T00:42:43.693Z,38.30
2019-03-22T00:45:48.643Z,41.70
2019-03-22T00:48:54.957Z,45.17
2019-03-22T00:52:01.585Z,43.93
2019-03-22T00:55:06.784Z,44.00
2019-03-22T00:58:11.822Z,44.03
2019-03-22T01:01:16.757Z,55.13
2019-03-22T01:04:23.706Z,60.30
2019-03-22T01:07:28.536Z,52.87
2019-03-22T01:10:33.385Z,62.97
2019-03-22T01:13:39.320Z,62.57
2019-03-22T01:16:44.218Z,52.77
2019-03-22T01:19:49.035Z,47.80
2019-03-22T01:22:53.868Z,44.77
2019-03-22T01:25:58.745Z,57.37
2019-03-22T01:29:03.893Z,50.27
2019-03-22T01:32:10.132Z,67.10
2019-03-22T01:35:18.233Z,47.77
2019-03-22T01:38:23.147Z,33.40
2019-03-22T01:41:27.975Z,52.20
2019-03-22T01:44:32.836Z,57.07
2019-03-22T01:47:38.333Z,40.40
2019-03-22T01:50:43.161Z,38.30
2019-03-22T01:53:49.067Z,46.93
2019-03-22T01:56:54.132Z,29.60
2019-03-22T01:59:58.968Z,30.20
2019-03-22T02:03:03.988Z,39.77
2019-03-22T02:06:08.895Z,34.57
2019-03-22T02:09:13.710Z,36.53
2019-03-22T02:12:18.802Z,32.00
2019-03-22T02:15:23.709Z,29.83
2019-03-22T02:18:31.171Z,27.17
2019-03-22T02:21:36.658Z,29.73
2019-03-22T02:24:41.579Z,36.80
2019-03-22T02:27:46.600Z,35.13
2019-03-22T02:30:52.952Z,37.03
2019-03-22T02:33:57.910Z,38.67
2019-03-22T02:37:02.698Z,35.97
2019-03-22T02:40:08.185Z,41.67
2019-03-22T02:43:13.065Z,41.87
2019-03-22T02:46:17.901Z,50.73
2019-03-22T02:49:22.833Z,50.27
2019-03-22T02:52:27.734Z,47.33
2019-03-22T02:55:32.667Z,47.80
2019-03-22T02:58:37.609Z,43.40
2019-03-22T03:01:42.621Z,29.97
2019-03-22T03:04:47.446Z,31.20
2019-03-22T03:07:52.277Z,30.07
2019-03-22T03:10:57.435Z,29.20
2019-03-22T03:14:02.261Z,34.87
2019-03-22T03:17:07.218Z,28.03
2019-03-22T03:20:12.891Z,28.87
2019-03-22T03:23:17.701Z,29.53
2019-03-22T03:26:22.637Z,23.97
2019-03-22T03:29:28.481Z,22.67
2019-03-22T03:32:33.486Z,25.20
2019-03-22T03:35:38.485Z,22.10
2019-03-22T03:38:43.402Z,24.80
2019-03-22T03:41:50.590Z,23.50
2019-03-22T03:44:55.476Z,20.80
2019-03-22T03:48:00.837Z,24.30
2019-03-22T03:51:08.348Z,25.60
2019-03-22T03:54:16.209Z,25.53
2019-03-22T03:57:21.117Z,23.57
2019-03-22T04:00:26.072Z,20.73
2019-03-22T04:03:30.881Z,27.93
2019-03-22T04:06:37.741Z,25.10
2019-03-22T04:09:42.621Z,27.57
2019-03-22T04:12:47.652Z,29.53
2019-03-22T04:15:52.480Z,38.77
2019-03-22T04:18:57.407Z,42.63
2019-03-22T04:22:02.332Z,38.53
2019-03-22T04:25:07.385Z,40.77
2019-03-22T04:28:12.225Z,35.73
2019-03-22T04:31:17.148Z,38.67
2019-03-22T04:34:22.076Z,36.53
2019-03-22T04:37:27.030Z,35.47
2019-03-22T04:40:33.141Z,32.43
2019-03-22T04:43:37.977Z,32.13
2019-03-22T04:46:44.654Z,30.03
2019-03-22T04:49:52.095Z,34.13
2019-03-22T04:52:57.637Z,31.20
2019-03-22T04:56:06.310Z,34.93
2019-03-22T04:59:19.297Z,35.33
2019-03-22T05:02:22.350Z,31.47
2019-03-22T05:05:27.385Z,34.60
2019-03-22T05:08:35.473Z,26.63
2019-03-22T05:11:41.617Z,24.03
2019-03-22T05:14:47.099Z,26.20
2019-03-22T05:17:52.669Z,25.43
2019-03-22T05:20:58.405Z,22.90
2019-03-22T05:24:05.685Z,21.33
2019-03-22T05:27:11.499Z,22.57
2019-03-22T05:31:01.069Z,20.07
2019-03-22T05:34:06.000Z,23.40
2019-03-22T05:37:10.917Z,24.60
2019-03-22T05:40:15.733Z,24.60
2019-03-22T05:43:20.705Z,26.77
2019-03-22T05:46:25.615Z,24.33
2019-03-22T05:49:33.513Z,25.10
2019-03-22T05:52:38.350Z,23.67
2019-03-22T05:55:43.211Z,24.43
2019-03-22T05:58:49.897Z,23.00
2019-03-22T06:01:54.822Z,22.13
2019-03-22T06:04:59.768Z,22.80
2019-03-22T06:08:05.204Z,20.80
2019-03-22T06:11:10.184Z,18.13
2019-03-22T06:14:15.296Z,17.10
2019-03-22T06:17:20.213Z,16.63
2019-03-22T06:20:25.138Z,15.93
2019-03-22T06:23:30.016Z,13.07
2019-03-22T06:26:34.852Z,12.00
2019-03-22T06:29:39.768Z,10.97
2019-03-22T06:32:44.657Z,14.53
2019-03-22T06:35:52.409Z,16.63
2019-03-22T06:38:57.336Z,17.57
2019-03-22T06:42:03.122Z,22.47
2019-03-22T06:45:08.446Z,19.87
2019-03-22T06:48:13.282Z,17.23
2019-03-22T06:51:18.114Z,15.83
2019-03-22T06:54:31.585Z,13.03
2019-03-22T06:57:29.685Z,13.10
2019-03-22T07:00:37.708Z,14.23
2019-03-22T07:03:42.546Z,11.17
2019-03-22T07:06:47.356Z,13.07
2019-03-22T07:09:52.211Z,11.33
2019-03-22T07:12:57.058Z,8.03
2019-03-22T07:16:01.883Z,8.20
2019-03-22T07:19:07.187Z,6.60
2019-03-22T07:22:12.022Z,7.33
2019-03-22T07:25:18.105Z,9.27
2019-03-22T07:28:22.943Z,6.87
2019-03-22T07:31:27.764Z,10.37
2019-03-22T07:34:32.594Z,9.20
2019-03-22T07:37:37.430Z,11.23
2019-03-22T07:40:42.250Z,6.57
2019-03-22T07:43:47.067Z,7.37
2019-03-22T07:46:51.891Z,8.93
2019-03-22T07:49:56.697Z,8.27
2019-03-22T07:53:01.612Z,8.93
2019-03-22T07:56:06.600Z,8.97
2019-03-22T07:59:11.501Z,9.17
2019-03-22T08:02:16.430Z,8.17
2019-03-22T08:05:21.360Z,8.10
2019-03-22T08:08:26.303Z,8.47
2019-03-22T08:11:31.234Z,9.63
2019-03-22T08:14:36.064Z,9.20
2019-03-22T08:17:40.996Z,9.20
2019-03-22T08:20:46.082Z,9.23
2019-03-22T08:23:50.983Z,10.77
2019-03-22T08:26:55.938Z,15.67
2019-03-22T08:30:02.759Z,11.20
2019-03-22T08:33:08.226Z,10.93
2019-03-22T08:36:14.933Z,8.63
2019-03-22T08:39:19.575Z,9.13
2019-03-22T08:42:24.504Z,8.30
2019-03-22T08:45:29.426Z,8.63
2019-03-22T08:48:34.436Z,9.93
2019-03-22T08:51:41.694Z,10.97
2019-03-22T08:54:46.530Z,8.80
2019-03-22T08:57:51.354Z,8.77
2019-03-22T09:00:57.904Z,9.83
2019-03-22T09:04:02.858Z,8.47
2019-03-22T09:07:07.665Z,10.57
2019-03-22T09:10:13.529Z,7.47
2019-03-22T09:13:18.462Z,8.90
2019-03-22T09:16:23.413Z,8.10
2019-03-22T09:19:28.278Z,9.77
2019-03-22T09:22:33.178Z,7.63
2019-03-22T09:25:37.967Z,8.17
2019-03-22T09:28:45.096Z,8.40
2019-03-22T09:31:49.915Z,10.53
2019-03-22T09:34:54.993Z,12.03
2019-03-22T09:38:12.049Z,14.00
2019-03-22T09:41:07.893Z,17.80
2019-03-22T09:44:14.262Z,17.00
2019-03-22T09:47:19.162Z,19.83
2019-03-22T09:50:23.974Z,15.87
2019-03-22T09:53:30.474Z,18.03
2019-03-22T09:56:46.452Z,20.00
2019-03-22T09:59:42.175Z,23.60
2019-03-22T10:02:47.110Z,32.57
2019-03-22T10:05:51.951Z,30.80
2019-03-22T10:08:56.803Z,34.53
2019-03-22T10:12:01.718Z,40.80
2019-03-22T10:15:07.180Z,44.37
2019-03-22T10:18:12.040Z,37.77
2019-03-22T10:21:22.342Z,27.27
2019-03-22T10:24:23.765Z,25.80
2019-03-22T10:27:31.550Z,27.90
2019-03-22T10:30:36.355Z,24.63
2019-03-22T10:33:41.208Z,23.57
2019-03-22T10:36:46.016Z,21.83
2019-03-22T10:39:50.989Z,21.10
2019-03-22T10:42:55.839Z,21.50
2019-03-22T10:46:01.107Z,15.10
2019-03-22T10:49:05.881Z,14.07
2019-03-22T10:52:10.653Z,13.13
2019-03-22T10:55:29.303Z,14.07
2019-03-22T10:58:22.367Z,13.93
2019-03-22T11:01:27.257Z,15.40
2019-03-22T11:04:32.063Z,15.83
2019-03-22T11:07:36.899Z,14.50
2019-03-22T11:10:41.855Z,14.50
2019-03-22T11:13:49.783Z,16.33
2019-03-22T11:16:56.135Z,16.57
2019-03-22T11:20:00.978Z,20.50
2019-03-22T11:23:05.909Z,19.20
2019-03-22T11:26:10.769Z,20.60
2019-03-22T11:29:18.559Z,20.90
2019-03-22T11:32:23.494Z,22.23
2019-03-22T11:35:31.631Z,23.33
2019-03-22T11:38:36.452Z,23.00
2019-03-22T11:41:41.659Z,24.13
2019-03-22T11:44:46.497Z,24.97
2019-03-22T11:47:51.317Z,26.97
2019-03-22T11:50:56.210Z,26.13
2019-03-22T11:54:01.129Z,24.50
2019-03-22T11:57:06.244Z,25.40
2019-03-22T12:00:15.435Z,25.83
2019-03-22T12:03:20.286Z,25.20
2019-03-22T12:06:27.280Z,22.40
2019-03-22T12:09:31.811Z,21.87
2019-03-22T12:12:36.697Z,22.80
2019-03-22T12:15:41.548Z,20.80
2019-03-22T12:18:46.391Z,17.97
2019-03-22T12:21:51.218Z,22.13
2019-03-22T12:24:56.087Z,18.70
2019-03-22T12:28:01.018Z,18.67
2019-03-22T12:31:05.932Z,16.87
2019-03-22T12:34:11.002Z,18.90
2019-03-22T12:37:15.936Z,23.50
2019-03-22T12:40:21.230Z,20.33
2019-03-22T12:43:28.472Z,25.27
2019-03-22T12:46:33.403Z,24.13
2019-03-22T12:49:38.373Z,20.13
2019-03-22T12:52:43.527Z,21.43
2019-03-22T12:55:48.791Z,26.50
2019-03-22T12:58:53.704Z,19.20
2019-03-22T13:01:58.539Z,19.97
2019-03-22T13:05:03.453Z,22.20
2019-03-22T13:08:08.411Z,24.63
2019-03-22T13:11:14.712Z,24.33
2019-03-22T13:14:19.540Z,25.00
2019-03-22T13:17:24.525Z,22.13
2019-03-22T13:20:32.336Z,25.30
2019-03-22T13:23:37.205Z,24.43
2019-03-22T13:26:42.047Z,30.07
2019-03-22T13:29:47.231Z,30.30
2019-03-22T13:32:52.419Z,27.50
2019-03-22T13:35:57.442Z,30.07
2019-03-22T13:39:02.340Z,29.27
2019-03-22T13:42:07.173Z,33.50
2019-03-22T13:45:12.013Z,37.97
2019-03-22T13:48:16.849Z,35.37
2019-03-22T13:51:21.775Z,39.87
2019-03-22T13:54:29.446Z,41.37
2019-03-22T13:57:36.986Z,43.53
2019-03-22T14:00:41.823Z,49.13
2019-03-22T14:03:46.682Z,48.80
2019-03-22T14:06:51.599Z,47.23
2019-03-22T14:09:56.425Z,46.97
2019-03-22T14:13:01.821Z,52.17
2019-03-22T14:16:06.641Z,53.83
2019-03-22T14:19:11.507Z,56.27
2019-03-22T14:22:16.368Z,55.60
2019-03-22T14:25:21.339Z,51.97
2019-03-22T14:28:26.523Z,49.30
2019-03-22T14:31:31.447Z,54.80
2019-03-22T14:34:37.633Z,55.67
2019-03-22T14:37:42.518Z,56.93
2019-03-22T14:40:50.473Z,60.13
2019-03-22T14:43:55.395Z,64.30
2019-03-22T14:47:03.423Z,62.67
2019-03-22T14:50:08.797Z,66.80
2019-03-22T14:53:13.658Z,65.00
2019-03-22T14:56:21.337Z,65.23
2019-03-22T14:59:26.166Z,67.33
2019-03-22T15:02:31.002Z,64.53
2019-03-22T15:05:35.843Z,69.60
2019-03-22T15:08:40.706Z,65.03
2019-03-22T15:11:45.655Z,67.03
2019-03-22T15:15:11.027Z,63.07
2019-03-22T15:18:40.881Z,62.50
2019-03-22T15:22:10.689Z,65.43
2019-03-22T15:25:27.879Z,71.23
2019-03-22T15:28:53.784Z,75.00
2019-03-22T15:32:14.249Z,74.27
2019-03-22T15:35:36.588Z,73.87
2019-03-22T15:38:59.129Z,71.70
2019-03-22T15:42:04.187Z,78.53
2019-03-22T15:45:11.015Z,76.17
2019-03-22T15:48:15.895Z,70.37
2019-03-22T15:51:20.787Z,67.37
2019-03-22T15:54:25.653Z,69.97
2019-03-22T15:57:30.698Z,69.30
2019-03-22T16:00:35.570Z,96.73
2019-03-22T16:03:44.344Z,69.30
2019-03-22T16:06:49.034Z,75.40
2019-03-22T16:09:53.997Z,71.23
2019-03-22T16:12:58.960Z,72.33
2019-03-22T16:16:04.080Z,73.30
2019-03-22T16:19:09.052Z,75.60
2019-03-22T16:22:13.905Z,75.57
2019-03-22T16:25:18.866Z,76.93
2019-03-22T16:28:23.712Z,81.13
2019-03-22T16:31:28.558Z,78.80
2019-03-22T16:34:33.394Z,82.07
2019-03-22T16:37:38.525Z,80.57
2019-03-22T16:40:43.366Z,80.13
2019-03-22T16:43:48.325Z,76.27
2019-03-22T16:46:53.306Z,80.07
2019-03-22T16:49:58.172Z,75.27
2019-03-22T16:53:03.133Z,83.73
2019-03-22T16:56:09.509Z,78.43
2019-03-22T16:59:16.813Z,83.37
2019-03-22T17:02:21.947Z,86.30
2019-03-22T17:05:26.801Z,77.07
2019-03-22T17:08:33.230Z,84.70
2019-03-22T17:11:38.249Z,87.07
2019-03-22T17:14:43.341Z,93.33
2019-03-22T17:17:48.225Z,83.47
2019-03-22T17:20:58.271Z,89.23
2019-03-22T17:24:03.277Z,92.03
2019-03-22T17:27:08.237Z,84.57
2019-03-22T17:30:13.710Z,90.40
2019-03-22T17:33:18.551Z,98.47
2019-03-22T17:36:26.584Z,93.60
2019-03-22T17:39:31.439Z,98.90
2019-03-22T17:42:36.324Z,102.00
2019-03-22T17:45:44.226Z,109.03
2019-03-22T17:48:49.179Z,109.97
2019-03-22T17:51:54.149Z,106.63
2019-03-22T17:54:59.196Z,109.57
2019-03-22T17:58:04.274Z,109.00
2019-03-22T18:01:09.231Z,103.30
2019-03-22T18:04:23.694Z,110.97
2019-03-22T18:07:20.668Z,113.23
2019-03-22T18:10:25.510Z,124.33
2019-03-22T18:13:31.460Z,113.97
2019-03-22T18:16:36.368Z,132.07
2019-03-22T18:19:41.432Z,126.27
2019-03-22T18:22:49.149Z,124.00
2019-03-22T18:25:56.861Z,119.03
2019-03-22T18:29:04.405Z,126.80
2019-03-22T18:32:09.445Z,135.97
2019-03-22T18:35:14.571Z,132.80
2019-03-22T18:38:19.532Z,140.40
2019-03-22T18:41:24.413Z,141.17
2019-03-22T18:44:29.364Z,126.70
2019-03-22T18:47:34.544Z,137.13
2019-03-22T18:50:39.405Z,147.80
2019-03-22T18:53:46.296Z,144.50
2019-03-22T18:56:50.998Z,138.97
2019-03-22T18:59:57.528Z,136.23
2019-03-22T19:03:02.421Z,146.23
2019-03-22T19:06:07.251Z,148.40
2019-03-22T19:09:14.595Z,163.63
2019-03-22T19:12:19.537Z,154.57
2019-03-22T19:15:24.422Z,144.97
2019-03-22T19:18:29.263Z,145.43
2019-03-22T19:21:37.817Z,147.47
2019-03-22T19:24:42.964Z,150.77
2019-03-22T19:27:48.117Z,137.23
2019-03-22T19:30:54.615Z,147.17
2019-03-22T19:33:59.879Z,154.27
2019-03-22T19:37:04.992Z,151.57
2019-03-22T19:40:10.330Z,136.73
2019-03-22T19:43:15.515Z,124.77
2019-03-22T19:46:20.684Z,131.23
2019-03-22T19:49:25.662Z,130.33
2019-03-22T19:52:34.894Z,121.33
2019-03-22T19:55:40.149Z,123.20
2019-03-22T19:58:45.170Z,121.03
2019-03-22T20:01:52.150Z,119.60
2019-03-22T20:05:04.737Z,113.73
2019-03-22T20:08:05.037Z,124.17
2019-03-22T20:11:10.080Z,111.97
2019-03-22T20:14:17.763Z,109.67
2019-03-22T20:17:22.890Z,120.63
2019-03-22T20:20:28.042Z,116.73
2019-03-22T20:23:33.292Z,110.73
2019-03-22T20:26:38.588Z,116.60
2019-03-22T20:29:43.772Z,106.20
2019-03-22T20:32:48.975Z,111.33
2019-03-22T20:35:54.282Z,115.97
2019-03-22T20:38:59.291Z,112.03
2019-03-22T20:42:04.590Z,111.03
2019-03-22T20:45:10.647Z,110.47
2019-03-22T20:48:15.659Z,97.73
2019-03-22T20:51:21.117Z,109.43
2019-03-22T20:54:26.863Z,98.33
2019-03-22T20:57:33.815Z,98.53
2019-03-22T21:00:38.953Z,90.23
2019-03-22T21:03:44.082Z,93.43
2019-03-22T21:06:49.051Z,107.00
2019-03-22T21:09:54.223Z,94.90
2019-03-22T21:12:59.230Z,107.03
2019-03-22T21:16:04.126Z,111.83
2019-03-22T21:19:09.130Z,124.77
2019-03-22T21:22:14.379Z,116.90
2019-03-22T21:25:19.528Z,120.17
2019-03-22T21:28:24.600Z,126.37
2019-03-22T21:31:31.570Z,136.27
2019-03-22T21:34:36.642Z,130.77
2019-03-22T21:37:41.565Z,128.97
2019-03-22T21:40:46.587Z,139.53
2019-03-22T21:43:51.787Z,134.57
2019-03-22T21:46:56.740Z,140.30
2019-03-22T21:50:01.606Z,143.90
2019-03-22T21:53:06.518Z,150.40
2019-03-22T21:56:11.405Z,150.20
2019-03-22T21:59:18.602Z,150.70
2019-03-22T22:02:26.237Z,164.90
2019-03-22T22:05:36.224Z,170.70
2019-03-22T22:08:44.730Z,161.07
2019-03-22T22:11:51.755Z,166.97
2019-03-22T22:15:00.842Z,177.47
2019-03-22T22:18:08.029Z,168.37
2019-03-22T22:21:15.173Z,157.10
2019-03-22T22:24:22.535Z,164.83
2019-03-22T22:27:29.926Z,155.23
2019-03-22T22:30:37.694Z,194.90
2019-03-22T22:33:44.975Z,204.33
2019-03-22T22:36:52.252Z,212.83
2019-03-22T22:40:00.129Z,220.43
2019-03-22T22:43:06.841Z,222.43
2019-03-22T22:46:11.780Z,194.93
2019-03-22T22:49:16.719Z,148.90
2019-03-22T22:52:21.819Z,148.67
2019-03-22T22:55:26.855Z,138.43
2019-03-22T22:58:31.793Z,145.17
2019-03-22T23:01:37.245Z,164.13
2019-03-22T23:04:42.199Z,161.23
2019-03-22T23:07:47.094Z,167.10
2019-03-22T23:10:52.337Z,154.50
2019-03-22T23:13:57.296Z,163.50
2019-03-22T23:17:02.156Z,161.33
2019-03-22T23:20:08.708Z,171.70
2019-03-22T23:23:13.644Z,153.03
2019-03-22T23:26:18.574Z,161.73
2019-03-22T23:29:23.515Z,161.77
2019-03-22T23:32:28.361Z,152.77
2019-03-22T23:35:33.215Z,149.17
2019-03-22T23:38:38.050Z,145.50
2019-03-22T23:41:42.917Z,158.80
2019-03-22T23:44:47.783Z,180.53
2019-03-22T23:47:53.027Z,185.50
2019-03-22T23:50:57.930Z,159.03
2019-03-22T23:54:02.866Z,162.23
2019-03-22T23:57:07.826Z,224.03
